createdAt,value
2022-11-08T00:00:20.403Z,3.47
2022-11-08T00:02:48.396Z,2.63
2022-11-08T00:05:34.256Z,3.60
2022-11-08T00:08:22.051Z,3.20
2022-11-08T00:11:07.671Z,3.00
2022-11-08T00:13:54.614Z,3.13
2022-11-08T00:16:22.860Z,2.65
2022-11-08T00:18:50.749Z,3.30
2022-11-08T00:21:18.931Z,4.00
2022-11-08T00:23:48.289Z,3.35
2022-11-08T00:26:16.551Z,4.63
2022-11-08T00:28:46.112Z,3.20
2022-11-08T00:31:13.994Z,2.90
2022-11-08T00:33:41.838Z,3.63
2022-11-08T00:36:10.709Z,3.10
2022-11-08T00:38:42.627Z,3.38
2022-11-08T00:41:10.648Z,3.40
2022-11-08T00:43:38.589Z,3.15
2022-11-08T00:46:08.056Z,3.40
2022-11-08T00:48:36.029Z,3.25
2022-11-08T00:51:06.229Z,3.40
2022-11-08T00:53:34.688Z,2.58
2022-11-08T00:56:03.528Z,4.85
2022-11-08T00:58:31.883Z,3.33
2022-11-08T01:01:00.261Z,3.35
2022-11-08T01:03:29.626Z,3.70
2022-11-08T01:05:58.531Z,3.00
2022-11-08T01:08:26.799Z,3.63
2022-11-08T01:10:54.657Z,2.67
2022-11-08T01:13:22.628Z,2.85
2022-11-08T01:15:50.653Z,3.10
2022-11-08T01:18:19.502Z,3.17
2022-11-08T01:20:50.442Z,3.58
2022-11-08T01:23:19.575Z,3.03
2022-11-08T01:25:48.712Z,2.70
2022-11-08T01:28:17.977Z,2.80
2022-11-08T01:30:46.586Z,3.58
2022-11-08T01:33:15.410Z,3.13
2022-11-08T01:35:45.845Z,2.25
2022-11-08T01:38:15.715Z,3.22
2022-11-08T01:40:45.611Z,3.05
2022-11-08T01:43:39.954Z,2.50
2022-11-08T01:46:40.564Z,2.97
2022-11-08T01:49:29.683Z,2.50
2022-11-08T01:52:08.689Z,2.42
2022-11-08T01:54:43.660Z,2.55
2022-11-08T01:57:15.748Z,3.00
2022-11-08T01:59:47.209Z,2.50
2022-11-08T02:02:16.255Z,3.17
2022-11-08T02:04:44.688Z,2.75
2022-11-08T02:07:14.345Z,2.50
2022-11-08T02:09:46.003Z,2.65
2022-11-08T02:12:15.677Z,2.60
2022-11-08T02:14:43.983Z,3.00
2022-11-08T02:17:12.442Z,2.40
2022-11-08T02:19:43.859Z,2.75
2022-11-08T02:22:22.310Z,3.35
2022-11-08T02:24:52.113Z,2.47
2022-11-08T02:27:20.001Z,2.90
2022-11-08T02:29:47.925Z,2.63
2022-11-08T02:32:16.531Z,2.70
2022-11-08T02:34:48.599Z,3.28
2022-11-08T02:37:19.998Z,2.40
2022-11-08T02:39:48.232Z,2.65
2022-11-08T02:42:18.949Z,2.92
2022-11-08T02:44:47.168Z,2.80
2022-11-08T02:47:15.445Z,3.08
2022-11-08T02:49:43.769Z,2.67
2022-11-08T02:52:11.812Z,2.33
2022-11-08T02:54:39.801Z,2.95
2022-11-08T02:57:07.809Z,2.65
2022-11-08T02:59:37.179Z,2.97
2022-11-08T03:02:05.226Z,2.13
2022-11-08T03:04:34.148Z,2.67
2022-11-08T03:07:02.376Z,2.65
2022-11-08T03:09:30.474Z,2.85
2022-11-08T03:11:58.697Z,2.67
2022-11-08T03:14:26.590Z,3.13
2022-11-08T03:16:55.839Z,3.20
2022-11-08T03:19:23.867Z,2.40
2022-11-08T03:21:51.869Z,2.40
2022-11-08T03:24:19.748Z,3.40
2022-11-08T03:26:47.988Z,2.53
2022-11-08T03:29:15.883Z,2.30
2022-11-08T03:31:43.931Z,2.38
2022-11-08T03:34:13.399Z,2.30
2022-11-08T03:36:41.305Z,2.92
2022-11-08T03:39:10.485Z,3.25
2022-11-08T03:41:39.850Z,2.90
2022-11-08T03:44:08.906Z,2.80
2022-11-08T03:46:38.356Z,2.65
2022-11-08T03:49:06.861Z,3.60
2022-11-08T03:51:36.109Z,2.75
2022-11-08T03:54:04.739Z,2.95
2022-11-08T03:56:33.277Z,3.42
2022-11-08T03:59:01.193Z,2.90
2022-11-08T04:01:29.428Z,2.75
2022-11-08T04:03:57.431Z,2.20
2022-11-08T04:06:25.845Z,2.65
2022-11-08T04:08:55.244Z,2.85
2022-11-08T04:11:40.795Z,2.80
2022-11-08T04:14:27.450Z,3.65
2022-11-08T04:17:01.267Z,2.97
2022-11-08T04:19:46.658Z,2.25
2022-11-08T04:22:14.781Z,3.40
2022-11-08T04:24:44.102Z,2.78
2022-11-08T04:27:11.992Z,2.75
2022-11-08T04:29:39.913Z,3.40
2022-11-08T04:32:07.954Z,2.97
2022-11-08T04:34:36.093Z,2.70
2022-11-08T04:37:04.236Z,2.78
2022-11-08T04:39:32.176Z,2.83
2022-11-08T04:42:02.632Z,2.85
2022-11-08T04:44:30.745Z,2.58
2022-11-08T04:46:58.954Z,2.60
2022-11-08T04:49:27.008Z,5.50
2022-11-08T04:51:54.877Z,2.97
2022-11-08T04:54:22.781Z,2.28
2022-11-08T04:56:50.830Z,2.35
2022-11-08T04:59:20.323Z,2.45
2022-11-08T05:01:48.337Z,2.55
2022-11-08T05:04:16.611Z,2.95
2022-11-08T05:06:44.577Z,2.67
2022-11-08T05:09:12.619Z,2.70
2022-11-08T05:11:40.554Z,2.58
2022-11-08T05:14:08.445Z,2.88
2022-11-08T05:16:37.824Z,2.78
2022-11-08T05:19:10.472Z,2.50
2022-11-08T05:21:58.513Z,2.60
2022-11-08T05:24:26.659Z,2.60
2022-11-08T05:26:54.578Z,2.42
2022-11-08T05:29:22.585Z,2.28
2022-11-08T05:31:52.090Z,2.60
2022-11-08T05:34:20.065Z,2.92
2022-11-08T05:36:48.213Z,3.05
2022-11-08T05:39:16.100Z,2.15
2022-11-08T05:41:44.285Z,2.30
2022-11-08T05:44:12.212Z,2.90
2022-11-08T05:46:40.451Z,2.70
2022-11-08T05:49:09.793Z,2.75
2022-11-08T05:51:37.777Z,2.20
2022-11-08T05:54:08.057Z,2.75
2022-11-08T05:56:36.699Z,2.55
2022-11-08T05:59:04.662Z,2.70
2022-11-08T06:01:32.658Z,2.47
2022-11-08T06:04:00.639Z,2.58
2022-11-08T06:06:30.512Z,2.63
2022-11-08T06:08:58.492Z,2.13
2022-11-08T06:11:28.610Z,2.08
2022-11-08T06:13:57.017Z,2.13
2022-11-08T06:16:26.416Z,2.25
2022-11-08T06:18:54.537Z,2.53
2022-11-08T06:21:23.115Z,2.35
2022-11-08T06:23:55.017Z,2.50
2022-11-08T06:26:23.749Z,2.53
2022-11-08T06:28:51.979Z,2.67
2022-11-08T06:31:20.029Z,3.17
2022-11-08T06:33:48.530Z,2.42
2022-11-08T06:36:16.401Z,2.25
2022-11-08T06:38:44.476Z,2.05
2022-11-08T06:41:19.936Z,2.38
2022-11-08T06:43:48.515Z,2.13
2022-11-08T06:46:17.093Z,2.45
2022-11-08T06:48:45.046Z,2.10
2022-11-08T06:51:12.973Z,2.05
2022-11-08T06:53:40.901Z,1.92
2022-11-08T06:56:09.531Z,2.15
2022-11-08T06:58:39.298Z,2.33
2022-11-08T07:01:10.516Z,2.20
2022-11-08T07:03:38.865Z,2.35
2022-11-08T07:06:07.653Z,2.33
2022-11-08T07:08:36.156Z,2.67
2022-11-08T07:11:04.976Z,2.53
2022-11-08T07:13:33.101Z,2.28
2022-11-08T07:16:03.172Z,2.75
2022-11-08T07:18:31.614Z,2.08
2022-11-08T07:21:00.105Z,2.13
2022-11-08T07:23:28.785Z,2.33
2022-11-08T07:25:56.824Z,2.10
2022-11-08T07:28:24.875Z,2.47
2022-11-08T07:30:58.120Z,2.40
2022-11-08T07:33:27.775Z,2.17
2022-11-08T07:35:56.446Z,2.30
2022-11-08T07:38:26.561Z,2.88
2022-11-08T07:40:57.654Z,2.30
2022-11-08T07:43:26.608Z,1.85
2022-11-08T07:45:58.937Z,2.50
2022-11-08T07:48:29.613Z,2.20
2022-11-08T07:50:57.633Z,2.33
2022-11-08T07:53:25.736Z,1.85
2022-11-08T07:55:55.125Z,2.55
2022-11-08T07:58:23.136Z,2.42
2022-11-08T08:00:51.053Z,1.80
2022-11-08T08:03:19.598Z,2.22
2022-11-08T08:05:59.551Z,1.70
2022-11-08T08:08:29.703Z,1.92
2022-11-08T08:10:59.758Z,2.78
2022-11-08T08:13:28.091Z,2.03
2022-11-08T08:15:59.702Z,2.15
2022-11-08T08:18:29.056Z,2.08
2022-11-08T08:20:59.380Z,1.73
2022-11-08T08:23:27.764Z,1.85
2022-11-08T08:25:55.761Z,2.20
2022-11-08T08:28:23.736Z,1.95
2022-11-08T08:30:51.616Z,1.90
2022-11-08T08:33:29.037Z,2.63
2022-11-08T08:36:01.048Z,2.30
2022-11-08T08:38:30.336Z,2.40
2022-11-08T08:40:58.569Z,1.98
2022-11-08T08:43:27.571Z,2.17
2022-11-08T08:45:56.006Z,2.28
2022-11-08T08:48:23.837Z,1.92
2022-11-08T08:50:51.716Z,2.10
2022-11-08T08:53:21.491Z,1.77
2022-11-08T08:55:52.389Z,1.80
2022-11-08T08:58:22.087Z,1.90
2022-11-08T09:03:38.403Z,1.88
2022-11-08T09:06:06.659Z,1.77
2022-11-08T09:08:36.304Z,2.20
2022-11-08T09:11:04.697Z,2.20
2022-11-08T09:13:32.983Z,1.90
2022-11-08T09:16:03.682Z,2.15
2022-11-08T09:18:33.244Z,1.65
2022-11-08T09:21:03.288Z,1.63
2022-11-08T09:23:31.698Z,1.77
2022-11-08T09:26:02.747Z,2.03
2022-11-08T09:28:31.943Z,2.20
2022-11-08T09:31:09.123Z,1.70
2022-11-08T09:33:37.445Z,2.33
2022-11-08T09:36:10.039Z,1.90
2022-11-08T09:38:38.892Z,2.13
2022-11-08T09:41:54.614Z,2.00
2022-11-08T09:44:55.128Z,1.98
2022-11-08T09:47:27.230Z,2.20
2022-11-08T09:50:03.852Z,2.10
2022-11-08T09:52:36.188Z,1.88
2022-11-08T09:55:17.449Z,2.05
2022-11-08T09:57:57.787Z,1.92
2022-11-08T10:00:27.349Z,1.80
2022-11-08T10:02:57.510Z,2.30
2022-11-08T10:05:35.998Z,2.30
2022-11-08T10:08:13.186Z,2.15
2022-11-08T10:10:55.970Z,2.13
2022-11-08T10:13:37.420Z,2.05
2022-11-08T10:16:16.381Z,2.13
2022-11-08T10:18:58.836Z,2.10
2022-11-08T10:21:47.001Z,2.30
2022-11-08T10:24:22.553Z,3.15
2022-11-08T10:26:53.374Z,2.25
2022-11-08T10:29:27.160Z,1.98
2022-11-08T10:32:01.672Z,1.90
2022-11-08T10:34:37.708Z,2.25
2022-11-08T10:37:07.512Z,2.17
2022-11-08T10:39:43.394Z,1.92
2022-11-08T10:42:17.253Z,2.10
2022-11-08T10:44:46.925Z,2.17
2022-11-08T10:47:21.015Z,2.55
2022-11-08T10:49:48.980Z,1.92
2022-11-08T10:52:20.286Z,1.85
2022-11-08T10:54:50.709Z,1.90
2022-11-08T10:57:25.816Z,2.22
2022-11-08T10:59:56.674Z,1.60
2022-11-08T11:02:29.073Z,1.60
2022-11-08T11:05:21.957Z,2.13
2022-11-08T11:08:01.906Z,1.98
2022-11-08T11:10:31.922Z,1.65
2022-11-08T11:13:04.938Z,1.80
2022-11-08T11:15:36.673Z,2.25
2022-11-08T11:18:05.842Z,1.60
2022-11-08T11:20:34.635Z,2.03
2022-11-08T11:23:03.204Z,2.17
2022-11-08T11:25:31.855Z,2.25
2022-11-08T11:28:01.477Z,1.73
2022-11-08T11:30:32.612Z,2.03
2022-11-08T11:33:24.142Z,2.00
2022-11-08T11:35:56.652Z,2.00
2022-11-08T11:38:37.088Z,2.47
2022-11-08T11:41:11.196Z,1.90
2022-11-08T11:43:45.393Z,1.95
2022-11-08T11:46:21.588Z,1.88
2022-11-08T11:48:59.468Z,2.03
2022-11-08T11:51:30.495Z,1.88
2022-11-08T11:54:08.917Z,1.42
2022-11-08T11:56:46.770Z,1.92
2022-11-08T11:59:39.781Z,1.98
2022-11-08T12:02:45.660Z,1.95
2022-11-08T12:05:30.393Z,2.90
2022-11-08T12:08:10.508Z,1.83
2022-11-08T12:10:55.512Z,1.77
2022-11-08T12:13:30.766Z,1.88
2022-11-08T12:16:06.941Z,1.67
2022-11-08T12:18:45.428Z,1.67
2022-11-08T12:21:16.552Z,1.63
2022-11-08T12:24:00.530Z,1.90
2022-11-08T12:26:34.356Z,2.10
2022-11-08T12:31:45.325Z,2.05
2022-11-08T12:34:22.240Z,1.80
2022-11-08T12:37:15.304Z,1.80
2022-11-08T12:39:47.069Z,2.00
2022-11-08T12:42:49.208Z,1.85
2022-11-08T12:45:33.529Z,2.20
2022-11-08T12:48:08.602Z,2.25
2022-11-08T12:50:44.451Z,2.28
2022-11-08T12:53:50.104Z,1.58
2022-11-08T12:56:23.079Z,2.00
2022-11-08T12:58:53.080Z,1.98
2022-11-08T13:01:23.209Z,2.00
2022-11-08T13:04:22.373Z,1.63
2022-11-08T13:06:57.289Z,1.92
2022-11-08T13:09:37.524Z,1.83
2022-11-08T13:12:17.457Z,1.92
2022-11-08T13:14:45.874Z,1.48
2022-11-08T13:17:18.667Z,1.83
2022-11-08T13:20:06.995Z,1.75
2022-11-08T13:23:00.632Z,2.15
2022-11-08T13:25:41.681Z,2.13
2022-11-08T13:28:39.215Z,1.50
2022-11-08T13:31:41.208Z,2.20
2022-11-08T13:34:20.107Z,1.88
2022-11-08T13:37:07.839Z,1.95
2022-11-08T13:39:54.849Z,1.77
2022-11-08T13:42:37.988Z,1.98
2022-11-08T13:45:29.347Z,2.40
2022-11-08T13:48:06.964Z,1.80
2022-11-08T13:50:52.895Z,1.85
2022-11-08T13:53:47.566Z,1.67
2022-11-08T13:56:24.840Z,1.95
2022-11-08T13:58:54.532Z,2.13
2022-11-08T14:02:00.631Z,1.85
2022-11-08T14:04:31.065Z,1.85
2022-11-08T14:07:07.513Z,1.90
2022-11-08T14:09:48.663Z,1.63
2022-11-08T14:12:27.490Z,2.05
2022-11-08T14:15:07.492Z,1.95
2022-11-08T14:17:45.037Z,2.25
2022-11-08T14:20:35.849Z,1.58
2022-11-08T14:23:15.902Z,1.95
2022-11-08T14:25:48.210Z,2.10
2022-11-08T14:28:24.209Z,1.95
2022-11-08T14:30:54.626Z,2.10
2022-11-08T14:33:27.281Z,2.10
2022-11-08T14:36:01.752Z,2.05
2022-11-08T14:38:32.571Z,2.20
2022-11-08T14:41:03.307Z,1.90
2022-11-08T14:43:37.678Z,2.25
2022-11-08T14:46:14.305Z,2.08
2022-11-08T14:48:51.671Z,1.80
2022-11-08T14:51:19.988Z,1.73
2022-11-08T14:53:50.830Z,2.00
2022-11-08T14:56:21.748Z,2.20
2022-11-08T14:58:51.826Z,1.75
2022-11-08T15:01:24.848Z,1.80
2022-11-08T15:03:56.974Z,2.25
2022-11-08T15:06:33.986Z,1.80
2022-11-08T15:09:04.843Z,2.88
2022-11-08T15:11:36.403Z,1.95
2022-11-08T15:14:09.013Z,2.78
2022-11-08T15:16:45.054Z,2.15
2022-11-08T15:19:27.919Z,1.92
2022-11-08T15:21:55.821Z,2.15
2022-11-08T15:24:34.351Z,2.08
2022-11-08T15:27:08.207Z,1.70
2022-11-08T15:29:53.692Z,2.03
2022-11-08T15:32:23.799Z,1.92
2022-11-08T15:34:55.954Z,2.10
2022-11-08T15:37:30.571Z,2.20
2022-11-08T15:40:02.512Z,2.40
2022-11-08T15:42:31.176Z,2.30
2022-11-08T15:45:01.663Z,2.40
2022-11-08T15:47:49.366Z,1.73
2022-11-08T15:50:20.432Z,2.08
2022-11-08T15:52:49.986Z,2.60
2022-11-08T15:55:20.131Z,2.10
2022-11-08T15:57:51.094Z,1.83
2022-11-08T16:00:22.192Z,2.67
2022-11-08T16:02:52.365Z,2.13
2022-11-08T16:05:22.787Z,2.15
2022-11-08T16:07:51.307Z,2.67
2022-11-08T16:10:24.653Z,2.13
2022-11-08T16:12:52.831Z,2.35
2022-11-08T16:15:24.811Z,2.58
2022-11-08T16:17:54.329Z,2.10
2022-11-08T16:20:27.620Z,2.20
2022-11-08T16:22:56.226Z,2.30
2022-11-08T16:25:26.203Z,2.22
2022-11-08T16:27:58.397Z,1.88
2022-11-08T16:30:27.317Z,2.40
2022-11-08T16:32:57.376Z,2.55
2022-11-08T16:35:25.885Z,2.30
2022-11-08T16:37:54.458Z,2.30
2022-11-08T16:40:24.366Z,2.67
2022-11-08T16:42:54.183Z,2.65
2022-11-08T16:45:43.496Z,2.08
2022-11-08T16:48:17.802Z,2.08
2022-11-08T16:50:46.741Z,2.38
2022-11-08T16:53:18.904Z,2.00
2022-11-08T16:55:47.848Z,2.05
2022-11-08T16:58:16.190Z,1.80
2022-11-08T17:00:46.448Z,2.05
2022-11-08T17:03:22.048Z,2.25
2022-11-08T17:05:50.476Z,2.20
2022-11-08T17:08:18.973Z,2.28
2022-11-08T17:10:47.881Z,2.38
2022-11-08T17:13:17.509Z,2.13
2022-11-08T17:15:46.576Z,2.00
2022-11-08T17:18:17.970Z,2.10
2022-11-08T17:20:46.636Z,2.22
2022-11-08T17:23:16.397Z,1.88
2022-11-08T17:25:44.991Z,2.40
2022-11-08T17:28:13.506Z,2.00
2022-11-08T17:30:44.728Z,1.98
2022-11-08T17:33:14.056Z,2.67
2022-11-08T17:35:44.787Z,2.00
2022-11-08T17:38:13.206Z,2.40
2022-11-08T17:40:42.614Z,2.22
2022-11-08T17:43:13.548Z,2.15
2022-11-08T17:45:43.015Z,2.80
2022-11-08T17:48:11.262Z,2.25
2022-11-08T17:50:39.605Z,1.80
2022-11-08T17:53:09.600Z,2.50
2022-11-08T17:55:37.710Z,1.80
2022-11-08T17:58:05.669Z,1.95
2022-11-08T18:00:33.611Z,2.35
2022-11-08T18:03:01.764Z,2.47
2022-11-08T18:05:29.731Z,2.53
2022-11-08T18:07:57.972Z,2.15
2022-11-08T18:10:27.687Z,2.33
2022-11-08T18:12:56.026Z,2.22
2022-11-08T18:15:24.419Z,2.22
2022-11-08T18:17:52.876Z,2.15
2022-11-08T18:20:20.894Z,2.40
2022-11-08T18:22:49.262Z,2.40
2022-11-08T18:25:17.751Z,2.42
2022-11-08T18:27:47.513Z,2.10
2022-11-08T18:30:16.110Z,2.20
2022-11-08T18:32:44.282Z,2.58
2022-11-08T18:35:12.416Z,2.17
2022-11-08T18:37:40.477Z,1.83
2022-11-08T18:40:11.241Z,2.88
2022-11-08T18:42:39.342Z,2.42
2022-11-08T18:45:10.229Z,2.47
2022-11-08T18:47:38.215Z,2.03
2022-11-08T18:50:09.473Z,2.28
2022-11-08T18:52:38.135Z,2.60
2022-11-08T18:55:07.236Z,2.10
2022-11-08T18:57:35.279Z,2.53
2022-11-08T19:00:04.686Z,2.42
2022-11-08T19:02:34.476Z,2.55
2022-11-08T19:05:03.390Z,2.08
2022-11-08T19:07:31.572Z,2.17
2022-11-08T19:09:59.894Z,1.90
2022-11-08T19:12:29.953Z,2.50
2022-11-08T19:14:58.072Z,2.47
2022-11-08T19:17:26.122Z,2.20
2022-11-08T19:19:55.596Z,2.15
2022-11-08T19:22:23.612Z,2.42
2022-11-08T19:24:51.547Z,1.90
2022-11-08T19:27:20.474Z,2.50
2022-11-08T19:29:48.537Z,2.42
2022-11-08T19:32:16.488Z,2.75
2022-11-08T19:34:45.392Z,2.22
2022-11-08T19:37:14.697Z,2.40
2022-11-08T19:39:42.618Z,2.72
2022-11-08T19:42:10.679Z,2.55
2022-11-08T19:44:38.580Z,2.60
2022-11-08T19:47:06.615Z,2.45
2022-11-08T19:49:36.354Z,2.25
2022-11-08T19:52:04.384Z,2.05
2022-11-08T19:54:33.628Z,2.20
2022-11-08T19:57:04.616Z,2.17
2022-11-08T19:59:33.693Z,1.75
2022-11-08T20:02:01.810Z,2.38
2022-11-08T20:04:29.848Z,2.90
2022-11-08T20:06:57.809Z,2.50
2022-11-08T20:09:30.177Z,2.50
2022-11-08T20:12:04.636Z,2.45
2022-11-08T20:14:34.468Z,2.00
2022-11-08T20:17:04.289Z,2.45
2022-11-08T20:19:32.727Z,2.70
2022-11-08T20:22:00.996Z,2.58
2022-11-08T20:24:28.964Z,2.25
2022-11-08T20:26:57.436Z,2.10
2022-11-08T20:29:27.033Z,2.50
2022-11-08T20:31:57.441Z,2.35
2022-11-08T20:34:29.850Z,2.20
2022-11-08T20:37:05.113Z,2.28
2022-11-08T20:39:44.506Z,1.77
2022-11-08T20:42:19.313Z,2.80
2022-11-08T20:45:00.671Z,2.17
2022-11-08T20:48:09.206Z,1.80
2022-11-08T20:51:05.383Z,2.17
2022-11-08T20:53:50.675Z,2.10
2022-11-08T20:56:50.472Z,2.50
2022-11-08T20:59:40.796Z,2.13
2022-11-08T21:02:13.438Z,1.98
2022-11-08T21:04:41.714Z,2.10
2022-11-08T21:10:13.571Z,2.33
2022-11-08T21:12:49.788Z,2.05
2022-11-08T21:15:24.298Z,2.15
2022-11-08T21:17:56.746Z,2.47
2022-11-08T21:20:28.069Z,2.10
2022-11-08T21:22:56.604Z,2.42
2022-11-08T21:25:25.118Z,1.95
2022-11-08T21:27:54.329Z,2.85
2022-11-08T21:30:23.834Z,2.42
2022-11-08T21:32:52.410Z,2.22
2022-11-08T21:35:21.727Z,3.03
2022-11-08T21:37:50.119Z,1.85
2022-11-08T21:40:18.362Z,2.00
2022-11-08T21:42:48.917Z,2.30
2022-11-08T21:45:17.369Z,1.73
2022-11-08T21:47:50.168Z,1.83
2022-11-08T21:50:18.787Z,2.30
2022-11-08T21:52:49.193Z,2.33
2022-11-08T21:55:17.502Z,2.13
2022-11-08T21:57:45.562Z,2.28
2022-11-08T22:00:15.191Z,2.13
2022-11-08T22:02:43.314Z,2.70
2022-11-08T22:05:11.418Z,2.35
2022-11-08T22:07:39.621Z,2.53
2022-11-08T22:10:15.280Z,2.42
2022-11-08T22:12:45.505Z,1.95
2022-11-08T22:15:28.835Z,2.10
2022-11-08T22:18:36.330Z,1.73
2022-11-08T22:21:57.230Z,3.45
2022-11-08T22:24:50.797Z,1.42
2022-11-08T22:27:26.223Z,1.40
2022-11-08T22:29:54.242Z,1.35
2022-11-08T22:32:22.109Z,1.55
2022-11-08T22:34:50.078Z,2.33
2022-11-08T22:37:17.987Z,1.77
2022-11-08T22:39:46.020Z,1.75
2022-11-08T22:42:13.931Z,1.27
2022-11-08T22:44:43.276Z,1.10
2022-11-08T22:47:11.348Z,1.25
2022-11-08T22:49:44.760Z,1.13
2022-11-08T22:52:13.115Z,1.25
2022-11-08T22:54:41.095Z,1.23
2022-11-08T22:57:09.227Z,0.85
2022-11-08T22:59:37.764Z,1.10
2022-11-08T23:02:15.730Z,0.63
2022-11-08T23:04:48.427Z,1.05
2022-11-08T23:07:39.573Z,0.80
2022-11-08T23:10:28.851Z,0.82
2022-11-08T23:13:21.666Z,1.45
2022-11-08T23:16:22.378Z,2.17
2022-11-08T23:19:17.742Z,1.02
2022-11-08T23:22:11.975Z,1.13
2022-11-08T23:24:50.163Z,1.17
2022-11-08T23:27:51.627Z,1.17
2022-11-08T23:30:37.416Z,0.82
2022-11-08T23:33:07.681Z,1.17
2022-11-08T23:35:37.200Z,1.15
2022-11-08T23:38:05.472Z,1.23
2022-11-08T23:40:51.282Z,1.42
2022-11-08T23:43:38.116Z,1.25
2022-11-08T23:46:08.599Z,1.10
2022-11-08T23:48:37.271Z,1.63
2022-11-08T23:51:07.764Z,1.20
2022-11-08T23:53:37.728Z,1.80
2022-11-08T23:56:06.616Z,1.58
2022-11-08T23:58:34.991Z,1.58
